Terminal Aerodrome Forecast
Issued by NWS Albany, NY

Home | Current Version | Previous Version | Text Only | Print | Product List | Glossary On
Versions: 1 2 3 4 5 6 7 8 9 10 11 12 13 14 15 16 17 18 19 20
639
FTUS41 KALY 270821 AAA
TAFGFL
TAF AMD
KGFL 270821Z 2708/2806 35004KT P6SM OVC025
      TEMPO 2708/2711 1SM BR BKN001
     FM271100 35004KT P6SM SCT025 BKN060 BKN100
     FM271600 03004KT P6SM SCT025 SCT080
     FM272300 VRB03KT P6SM SCT030 BKN080
     FM280200 VRB03KT P6SM BKN030=

USA.gov is the U.S. government's official web portal to all federal, state and local government web resources and services.